McCook, NE

11:09 AM CDT em 30 de Março de 2015 (GMT -0500)
McCook Municipal | | Change Station
CLOSE
Current Station
Aeroporto
Location: McCook,
Altitude: 2579 ft
Estações Meteorológicas Próximas

Elev 2579 ft 40.20 °N, 100.59 °W | Updated 16 minutes ago

Céu Limpo
Céu Limpo
67 °F
Aparente 67 °F
N
14
Vento Variável Vento de OSO

Hoje
Máxima -- | Mínima -- °F
--% Possibilidade de Precip.
Ontem
Máxima -- | Mínima -- °F
Precip. -- pol
7:29 AM 8:04 PM
Lua crescente, 80% visible
Pressão 30.03 pol
Visibilidade 10.0 milhas
Nuvens Céu Limpo
Ponto de Orvalho 28 °F
Humidade 23%
Chuva 0.00 pol
Altura de Neve Não disponível
UV 4 em vez de 12
Pólen 8.30 em vez de 12
Qualidade do Ar Não disponível
Flu Activity Não disponível
METAR KMCK 301553Z AUTO 24012KT 10SM CLR 19/M02 A3005 RMK AO2 SLP169 T01941022

More Conditions Fewer Conditions

Pressão 30.03 pol
Visibilidade 10.0 milhas
Nuvens Céu Limpo
Ponto de Orvalho 28 °F
Humidade 23%
Chuva 0.00 pol
Altura de Neve Não disponível
UV 4 em vez de 12
Pólen 8.30 em vez de 12
Qualidade do Ar Não disponível
Flu Activity Não disponível
METAR KMCK 301553Z AUTO 24012KT 10SM CLR 19/M02 A3005 RMK AO2 SLP169 T01941022

More Conditions Fewer Conditions

10-Day Weather Forecast

Almanac

Astronomia

Mar. 30, 2015 Nascer Pôr
Hora atual
Crepúsculo civil
Crepúsculo náutico
Crepúsculo astronómico
Lua
Comprimento da luz visível
Duração do Dia
Tomorrow will be .
, % of the Moon is Illuminated

Extremos de Hoje

situação na parte mais alta situação na parte mais baixa

Community

WunderPhotos

Upload Photos

1,809,523 fotografias inseridas!

WunderBlogs® & News

Nearby

Qualidade do Ar

  Qualidade do Ar Índice da Q.A. Poluente
Not available.

Altura da Neve

Estação altura Altitude

Actividade Sísmisca

Cidade Distância Mag. Hora & Data
Mínima magnitude apresentada é 2.5.

Temperaturas das Águas Costeiras

Local Temperatura

Stations

Estações Meteorológicas Próximas

Localização da Estação Temp. Sensação Térmica Ponto de Orvalho Humidade Vento Precip. Elev Actualizado Tipo